createdAt,value
2019-03-03T00:02:08.431Z,89.20
2019-03-03T00:04:39.310Z,88.69
2019-03-03T00:07:10.239Z,89.09
2019-03-03T00:09:41.174Z,88.32
2019-03-03T00:12:12.427Z,88.31
2019-03-03T00:14:43.234Z,88.62
2019-03-03T00:17:14.041Z,89.11
2019-03-03T00:19:45.094Z,88.80
2019-03-03T00:22:15.948Z,88.51
2019-03-03T00:24:46.749Z,88.35
2019-03-03T00:27:17.830Z,88.64
2019-03-03T00:29:49.219Z,88.71
2019-03-03T00:32:21.089Z,88.50
2019-03-03T00:34:52.114Z,88.61
2019-03-03T00:37:42.019Z,88.59
2019-03-03T00:40:31.251Z,88.14
2019-03-03T00:43:36.382Z,87.97
2019-03-03T00:46:13.955Z,88.28
2019-03-03T00:48:52.538Z,87.90
2019-03-03T00:51:29.730Z,87.38
2019-03-03T00:54:22.654Z,87.14
2019-03-03T00:57:21.828Z,86.95
2019-03-03T01:00:02.424Z,86.77
2019-03-03T01:02:38.129Z,86.35
2019-03-03T01:05:23.799Z,86.40
2019-03-03T01:08:06.363Z,86.20
2019-03-03T01:10:47.544Z,85.92
2019-03-03T01:13:45.344Z,85.85
2019-03-03T01:16:38.089Z,86.19
2019-03-03T01:19:27.845Z,85.87
2019-03-03T01:22:18.615Z,86.10
2019-03-03T01:25:06.737Z,85.63
2019-03-03T01:27:37.884Z,85.67
2019-03-03T01:30:10.831Z,85.65
2019-03-03T01:32:41.734Z,85.68
2019-03-03T01:35:12.570Z,85.91
2019-03-03T01:37:43.461Z,85.97
2019-03-03T01:40:15.331Z,86.23
2019-03-03T01:42:46.714Z,86.27
2019-03-03T01:45:17.730Z,86.56
2019-03-03T01:47:48.559Z,86.50
2019-03-03T01:50:19.604Z,86.83
2019-03-03T01:52:50.347Z,86.39
2019-03-03T01:55:21.119Z,86.41
2019-03-03T01:57:52.297Z,86.35
2019-03-03T02:00:25.480Z,86.03
2019-03-03T02:02:57.180Z,86.07
2019-03-03T02:05:28.126Z,85.51
2019-03-03T02:07:59.354Z,85.81
2019-03-03T02:10:31.079Z,85.70
2019-03-03T02:13:02.141Z,85.57
2019-03-03T02:15:33.022Z,85.33
2019-03-03T02:18:03.903Z,84.77
2019-03-03T02:20:34.993Z,85.14
2019-03-03T02:23:06.101Z,85.13
2019-03-03T02:25:36.977Z,85.13
2019-03-03T02:28:07.955Z,84.99
2019-03-03T02:30:38.807Z,84.70
2019-03-03T02:33:10.836Z,84.82
2019-03-03T02:35:42.358Z,84.51
2019-03-03T02:38:13.376Z,84.95
2019-03-03T02:40:44.531Z,84.78
2019-03-03T02:43:15.283Z,84.77
2019-03-03T02:45:46.049Z,84.78
2019-03-03T02:48:18.014Z,84.97
2019-03-03T02:50:49.091Z,84.71
2019-03-03T02:53:19.887Z,84.81
2019-03-03T02:55:50.650Z,84.85
2019-03-03T02:58:21.790Z,84.67
2019-03-03T03:00:59.136Z,84.47
2019-03-03T03:03:30.551Z,84.34
2019-03-03T03:06:21.075Z,84.34
2019-03-03T03:09:10.455Z,84.21
2019-03-03T03:12:05.087Z,84.59
2019-03-03T03:14:47.150Z,84.66
2019-03-03T03:17:34.040Z,84.65
2019-03-03T03:20:11.482Z,84.68
2019-03-03T03:23:04.744Z,84.65
2019-03-03T03:25:51.723Z,84.48
2019-03-03T03:28:29.260Z,84.41
2019-03-03T03:31:26.758Z,84.57
2019-03-03T03:34:04.189Z,84.53
2019-03-03T03:36:52.812Z,84.31
2019-03-03T03:39:28.544Z,84.00
2019-03-03T03:42:06.564Z,84.19
2019-03-03T03:44:59.389Z,83.89
2019-03-03T03:47:54.829Z,83.67
2019-03-03T03:50:47.619Z,83.62
2019-03-03T03:53:25.517Z,83.37
2019-03-03T03:56:27.730Z,83.11
2019-03-03T03:59:16.368Z,83.06
2019-03-03T04:02:10.116Z,82.86
2019-03-03T04:04:56.690Z,82.71
2019-03-03T04:07:36.704Z,83.12
2019-03-03T04:10:27.600Z,82.18
2019-03-03T04:13:17.354Z,83.08
2019-03-03T04:15:57.554Z,82.92
2019-03-03T04:18:37.874Z,82.69
2019-03-03T04:21:18.543Z,82.99
2019-03-03T04:24:07.318Z,82.75
2019-03-03T04:26:56.255Z,82.72
2019-03-03T04:29:34.702Z,82.79
2019-03-03T04:32:23.506Z,83.08
2019-03-03T04:35:11.284Z,83.26
2019-03-03T04:37:52.419Z,83.02
2019-03-03T04:40:29.699Z,83.45
2019-03-03T04:43:19.128Z,83.56
2019-03-03T04:46:05.997Z,83.67
2019-03-03T04:48:43.699Z,83.68
2019-03-03T04:51:38.809Z,83.77
2019-03-03T04:54:31.968Z,83.87
2019-03-03T04:57:20.698Z,83.85
2019-03-03T05:00:29.049Z,83.89
2019-03-03T05:03:07.721Z,83.82
2019-03-03T05:05:47.957Z,83.86
2019-03-03T05:08:33.885Z,84.01
2019-03-03T05:11:23.308Z,83.96
2019-03-03T05:14:01.898Z,84.03
2019-03-03T05:16:45.036Z,84.13
2019-03-03T05:19:25.021Z,84.27
2019-03-03T05:21:55.745Z,84.15
2019-03-03T05:24:33.929Z,83.67
2019-03-03T05:26:59.208Z,83.56
2019-03-03T05:29:30.045Z,83.90
2019-03-03T05:32:01.021Z,83.23
2019-03-03T05:34:33.681Z,83.14
2019-03-03T05:37:04.640Z,83.35
2019-03-03T05:39:35.621Z,83.65
2019-03-03T05:42:06.436Z,83.25
2019-03-03T05:44:37.955Z,83.28
2019-03-03T05:47:09.886Z,83.22
2019-03-03T05:49:40.651Z,83.11
2019-03-03T05:52:11.876Z,82.97
2019-03-03T05:54:43.115Z,83.04
2019-03-03T05:57:14.006Z,83.33
2019-03-03T05:59:44.768Z,82.91
2019-03-03T06:02:16.045Z,83.03
2019-03-03T06:04:47.781Z,83.45
2019-03-03T06:07:18.532Z,82.46
2019-03-03T06:09:49.298Z,82.36
2019-03-03T06:12:20.317Z,82.37
2019-03-03T06:14:51.616Z,82.09
2019-03-03T06:17:22.580Z,81.75
2019-03-03T06:19:53.973Z,81.90
2019-03-03T06:22:24.949Z,81.38
2019-03-03T06:24:55.717Z,81.63
2019-03-03T06:27:26.685Z,81.42
2019-03-03T06:29:57.446Z,81.26
2019-03-03T06:32:28.218Z,81.17
2019-03-03T06:34:59.198Z,81.03
2019-03-03T06:37:30.224Z,80.46
2019-03-03T06:40:00.991Z,80.16
2019-03-03T06:42:32.038Z,80.52
2019-03-03T06:45:02.814Z,80.34
2019-03-03T06:47:33.630Z,80.76
2019-03-03T06:50:04.987Z,80.05
2019-03-03T06:52:35.745Z,80.23
2019-03-03T06:55:07.436Z,80.16
2019-03-03T06:57:38.473Z,80.73
2019-03-03T07:00:12.646Z,80.38
2019-03-03T07:02:43.952Z,80.75
2019-03-03T07:05:15.078Z,81.00
2019-03-03T07:07:46.085Z,80.71
2019-03-03T07:10:17.406Z,80.82
2019-03-03T07:12:48.163Z,80.55
2019-03-03T07:15:18.918Z,80.50
2019-03-03T07:17:49.881Z,80.71
2019-03-03T07:20:20.946Z,80.01
2019-03-03T07:22:52.163Z,79.88
2019-03-03T07:25:23.140Z,79.12
2019-03-03T07:27:54.647Z,78.67
2019-03-03T07:30:25.409Z,78.37
2019-03-03T07:33:16.001Z,77.70
2019-03-03T07:35:47.958Z,77.30
2019-03-03T07:38:19.420Z,77.79
2019-03-03T07:40:50.732Z,77.75
2019-03-03T07:43:22.196Z,76.60
2019-03-03T07:45:54.667Z,77.01
2019-03-03T07:48:25.710Z,76.79
2019-03-03T07:50:56.473Z,76.69
2019-03-03T07:53:27.213Z,75.95
2019-03-03T07:55:58.406Z,75.98
2019-03-03T07:58:29.460Z,75.70
2019-03-03T08:01:00.216Z,76.31
2019-03-03T08:03:31.037Z,76.06
2019-03-03T08:06:02.078Z,76.13
2019-03-03T08:08:33.045Z,76.50
2019-03-03T08:11:03.882Z,75.73
2019-03-03T08:13:34.868Z,75.92
2019-03-03T08:16:05.865Z,75.69
2019-03-03T08:18:37.870Z,75.88
2019-03-03T08:21:08.894Z,75.05
2019-03-03T08:23:39.657Z,74.69
2019-03-03T08:26:10.815Z,74.71
2019-03-03T08:28:41.885Z,75.49
2019-03-03T08:31:13.415Z,75.31
2019-03-03T08:33:44.507Z,75.61
2019-03-03T08:36:15.508Z,75.26
2019-03-03T08:38:46.759Z,74.89
2019-03-03T08:41:17.757Z,75.35
2019-03-03T08:43:59.154Z,74.84
2019-03-03T08:46:47.492Z,74.64
2019-03-03T08:49:35.730Z,75.17
2019-03-03T08:52:21.906Z,74.52
2019-03-03T08:55:17.701Z,74.52
2019-03-03T08:58:13.267Z,75.09
2019-03-03T09:00:51.738Z,74.74
2019-03-03T09:03:44.455Z,75.35
2019-03-03T09:06:32.949Z,75.52
2019-03-03T09:09:26.019Z,75.21
2019-03-03T09:12:18.985Z,74.69
2019-03-03T09:14:55.837Z,74.53
2019-03-03T09:17:44.561Z,74.43
2019-03-03T09:20:37.085Z,74.15
2019-03-03T09:23:26.866Z,73.40
2019-03-03T09:26:16.745Z,73.98
2019-03-03T09:29:00.033Z,74.36
2019-03-03T09:32:02.125Z,73.97
2019-03-03T09:34:51.883Z,73.87
2019-03-03T09:37:30.293Z,73.84
2019-03-03T09:40:11.298Z,73.99
2019-03-03T09:42:58.252Z,74.90
2019-03-03T09:45:37.416Z,74.52
2019-03-03T09:48:25.962Z,74.33
2019-03-03T09:51:19.218Z,74.14
2019-03-03T09:54:13.635Z,73.87
2019-03-03T09:56:52.702Z,74.20
2019-03-03T09:59:43.017Z,74.25
2019-03-03T10:02:36.197Z,73.32
2019-03-03T10:05:17.662Z,73.47
2019-03-03T10:07:57.605Z,74.07
2019-03-03T10:10:56.791Z,74.01
2019-03-03T10:13:42.515Z,74.38
2019-03-03T10:16:21.145Z,73.81
2019-03-03T10:19:07.324Z,74.41
2019-03-03T10:21:43.889Z,74.10
2019-03-03T10:24:24.978Z,74.56
2019-03-03T10:27:13.287Z,74.08
2019-03-03T10:30:01.587Z,74.36
2019-03-03T10:32:46.675Z,74.07
2019-03-03T10:35:42.603Z,73.06
2019-03-03T10:38:36.308Z,73.00
2019-03-03T10:41:14.072Z,72.88
2019-03-03T10:43:55.422Z,73.17
2019-03-03T10:46:33.458Z,73.05
2019-03-03T10:49:19.420Z,73.21
2019-03-03T10:51:56.243Z,73.16
2019-03-03T10:54:46.008Z,73.85
2019-03-03T10:57:30.466Z,73.44
2019-03-03T11:00:13.128Z,74.21
2019-03-03T11:03:06.499Z,74.41
2019-03-03T11:06:02.505Z,74.05
2019-03-03T11:08:51.425Z,74.09
2019-03-03T11:11:41.405Z,74.06
2019-03-03T11:14:27.399Z,73.50
2019-03-03T11:17:04.539Z,73.50
2019-03-03T11:20:00.535Z,72.71
2019-03-03T11:23:00.945Z,72.74
2019-03-03T11:25:51.949Z,72.77
2019-03-03T11:28:42.282Z,72.94
2019-03-03T11:31:30.751Z,73.04
2019-03-03T11:34:11.642Z,72.70
2019-03-03T11:36:53.548Z,72.96
2019-03-03T11:39:30.024Z,73.28
2019-03-03T11:42:22.454Z,73.01
2019-03-03T11:45:18.634Z,73.48
2019-03-03T11:48:08.772Z,74.07
2019-03-03T11:51:01.553Z,74.31
2019-03-03T11:53:41.530Z,73.66
2019-03-03T11:56:49.544Z,74.20
2019-03-03T11:59:30.869Z,73.80
2019-03-03T12:02:20.754Z,74.03
2019-03-03T12:05:08.172Z,74.03
2019-03-03T12:07:45.515Z,73.89
2019-03-03T12:10:45.122Z,73.22
2019-03-03T12:13:28.175Z,73.42
2019-03-03T12:16:23.111Z,73.62
2019-03-03T12:19:11.848Z,73.69
2019-03-03T12:21:58.649Z,73.55
2019-03-03T12:24:35.990Z,73.21
2019-03-03T12:27:30.846Z,73.40
2019-03-03T12:30:16.145Z,72.85
2019-03-03T12:33:08.472Z,73.16
2019-03-03T12:35:51.666Z,72.80
2019-03-03T12:38:28.510Z,72.95
2019-03-03T12:41:18.265Z,72.87
2019-03-03T12:44:06.707Z,72.57
2019-03-03T12:46:47.024Z,72.74
2019-03-03T12:49:30.771Z,72.24
2019-03-03T12:52:20.816Z,72.75
2019-03-03T12:55:17.232Z,72.48
2019-03-03T12:58:03.913Z,72.93
2019-03-03T13:00:53.532Z,73.13
2019-03-03T13:03:49.177Z,72.80
2019-03-03T13:06:32.744Z,72.94
2019-03-03T13:09:12.555Z,73.10
2019-03-03T13:11:54.027Z,73.04
2019-03-03T13:14:42.505Z,72.74
2019-03-03T13:17:47.779Z,72.81
2019-03-03T13:20:28.486Z,72.42
2019-03-03T13:23:24.601Z,72.02
2019-03-03T13:26:01.856Z,72.49
2019-03-03T13:28:47.825Z,72.12
2019-03-03T13:31:25.412Z,71.94
2019-03-03T13:34:03.276Z,72.25
2019-03-03T13:36:51.370Z,71.48
2019-03-03T13:39:39.741Z,71.54
2019-03-03T13:42:31.568Z,71.26
2019-03-03T13:45:02.375Z,71.51
2019-03-03T13:47:33.309Z,71.39
2019-03-03T13:50:04.384Z,71.04
2019-03-03T13:52:35.434Z,71.43
2019-03-03T13:55:07.035Z,71.63
2019-03-03T13:57:38.028Z,71.19
2019-03-03T14:00:10.650Z,71.20
2019-03-03T14:02:41.469Z,71.26
2019-03-03T14:05:12.310Z,71.46
2019-03-03T14:07:43.384Z,71.02
2019-03-03T14:10:14.516Z,71.72
2019-03-03T14:12:45.697Z,70.86
2019-03-03T14:15:17.585Z,71.07
2019-03-03T14:17:48.717Z,71.21
2019-03-03T14:20:21.081Z,71.52
2019-03-03T14:22:53.606Z,71.29
2019-03-03T14:25:24.441Z,71.34
2019-03-03T14:27:55.264Z,71.53
2019-03-03T14:30:27.219Z,71.70
2019-03-03T14:32:58.048Z,71.06
2019-03-03T14:35:29.250Z,71.55
2019-03-03T14:38:00.314Z,71.22
2019-03-03T14:40:31.332Z,71.13
2019-03-03T14:43:02.086Z,70.98
2019-03-03T14:45:33.497Z,70.78
2019-03-03T14:48:04.448Z,70.87
2019-03-03T14:50:35.297Z,70.78
2019-03-03T14:53:06.352Z,70.56
2019-03-03T14:55:37.343Z,70.80
2019-03-03T14:58:08.639Z,71.19
2019-03-03T15:00:39.481Z,70.94
2019-03-03T15:03:10.554Z,71.11
2019-03-03T15:05:41.616Z,71.77
2019-03-03T15:08:12.672Z,71.67
2019-03-03T15:10:43.443Z,72.08
2019-03-03T15:13:15.930Z,72.14
2019-03-03T15:15:46.916Z,72.02
2019-03-03T15:18:18.050Z,71.94
2019-03-03T15:20:48.973Z,71.90
2019-03-03T15:23:20.029Z,71.05
2019-03-03T15:25:50.992Z,71.31
2019-03-03T15:28:21.820Z,71.36
2019-03-03T15:30:52.890Z,70.75
2019-03-03T15:33:24.006Z,70.69
2019-03-03T15:35:54.992Z,70.79
2019-03-03T15:38:26.994Z,70.65
2019-03-03T15:43:23.462Z,70.78
2019-03-03T15:45:54.466Z,71.31
2019-03-03T15:48:25.749Z,70.59
2019-03-03T15:50:57.106Z,70.60
2019-03-03T15:53:28.239Z,70.57
2019-03-03T15:55:59.215Z,69.88
2019-03-03T15:58:30.055Z,70.51
2019-03-03T16:01:01.177Z,70.02
2019-03-03T16:03:32.795Z,70.04
2019-03-03T16:06:05.043Z,69.55
2019-03-03T16:08:36.056Z,69.83
2019-03-03T16:11:07.378Z,69.93
2019-03-03T16:13:38.276Z,69.51
2019-03-03T16:16:09.264Z,69.16
2019-03-03T16:18:40.318Z,69.04
2019-03-03T16:21:11.488Z,68.63
2019-03-03T16:23:43.002Z,68.83
2019-03-03T16:26:14.197Z,69.28
2019-03-03T16:28:45.782Z,69.36
2019-03-03T16:31:16.832Z,69.54
2019-03-03T16:33:47.805Z,69.09
2019-03-03T16:36:18.842Z,69.90
2019-03-03T16:38:49.595Z,68.67
2019-03-03T16:41:20.607Z,69.05
2019-03-03T16:43:51.607Z,68.31
2019-03-03T16:46:22.398Z,68.82
2019-03-03T16:48:53.173Z,68.21
2019-03-03T16:51:24.665Z,68.46
2019-03-03T16:53:55.429Z,68.21
2019-03-03T16:56:26.420Z,68.43
2019-03-03T16:58:57.807Z,68.24
2019-03-03T17:01:28.613Z,68.47
2019-03-03T17:03:59.488Z,68.52
2019-03-03T17:06:30.440Z,68.42
2019-03-03T17:09:01.184Z,68.71
2019-03-03T17:11:34.025Z,69.31
2019-03-03T17:14:05.347Z,69.35
2019-03-03T17:16:36.596Z,68.88
2019-03-03T17:19:07.363Z,69.53
2019-03-03T17:21:38.373Z,69.67
2019-03-03T17:24:09.417Z,69.10
2019-03-03T17:26:40.187Z,68.80
2019-03-03T17:29:11.202Z,69.51
2019-03-03T17:31:42.254Z,69.21
2019-03-03T17:34:14.537Z,69.12
2019-03-03T17:36:45.667Z,69.31
2019-03-03T17:39:16.449Z,68.88
2019-03-03T17:41:47.811Z,68.81
2019-03-03T17:44:18.844Z,68.15
2019-03-03T17:46:49.634Z,68.34
2019-03-03T17:49:20.714Z,68.57
2019-03-03T17:51:51.853Z,68.83
2019-03-03T17:54:22.830Z,67.69
2019-03-03T17:56:53.669Z,68.02
2019-03-03T17:59:24.417Z,68.16
2019-03-03T18:01:55.186Z,68.60
2019-03-03T18:04:26.219Z,68.63
2019-03-03T18:06:57.497Z,68.50
2019-03-03T18:09:28.572Z,68.33
2019-03-03T18:11:59.472Z,68.14
2019-03-03T18:14:30.412Z,68.30
2019-03-03T18:17:01.397Z,69.15
2019-03-03T18:19:32.549Z,68.39
2019-03-03T18:22:03.311Z,68.54
2019-03-03T18:24:34.369Z,69.17
2019-03-03T18:27:05.410Z,68.96
2019-03-03T18:29:36.177Z,68.92
2019-03-03T18:32:07.420Z,68.69
2019-03-03T18:34:38.559Z,68.72
2019-03-03T18:37:09.388Z,68.15
2019-03-03T18:39:40.452Z,67.95
2019-03-03T18:42:11.306Z,68.22
2019-03-03T18:44:42.143Z,68.09
2019-03-03T18:47:13.862Z,68.30
2019-03-03T18:49:44.879Z,68.68
2019-03-03T18:52:15.861Z,68.22
2019-03-03T18:54:47.170Z,68.27
2019-03-03T18:57:17.937Z,68.66
2019-03-03T18:59:48.956Z,67.97
2019-03-03T19:02:19.990Z,68.14
2019-03-03T19:04:51.239Z,67.77
2019-03-03T19:07:22.926Z,67.47
2019-03-03T19:09:54.135Z,67.02
2019-03-03T19:12:24.924Z,68.11
2019-03-03T19:14:55.754Z,66.74
2019-03-03T19:17:27.169Z,65.87
2019-03-03T19:19:58.710Z,65.95
2019-03-03T19:22:29.507Z,66.04
2019-03-03T19:25:00.931Z,66.39
2019-03-03T19:27:31.827Z,66.51
2019-03-03T19:30:02.595Z,65.62
2019-03-03T19:32:35.463Z,65.59
2019-03-03T19:35:07.059Z,65.82
2019-03-03T19:37:38.220Z,65.51
2019-03-03T19:40:10.026Z,65.42
2019-03-03T19:42:41.112Z,66.02
2019-03-03T19:45:15.532Z,65.56
2019-03-03T19:47:46.828Z,65.90
2019-03-03T19:50:17.886Z,65.77
2019-03-03T19:52:48.710Z,66.09
2019-03-03T19:55:20.082Z,65.99
2019-03-03T19:57:50.901Z,66.70
2019-03-03T20:00:34.800Z,66.66
2019-03-03T20:02:58.858Z,66.50
2019-03-03T20:05:29.938Z,66.77
2019-03-03T20:08:00.940Z,66.62
2019-03-03T20:10:32.012Z,66.59
2019-03-03T20:13:03.013Z,66.68
2019-03-03T20:15:33.852Z,66.85
2019-03-03T20:18:05.989Z,66.84
2019-03-03T20:20:36.843Z,66.83
2019-03-03T20:23:08.117Z,66.69
2019-03-03T20:25:39.192Z,66.42
2019-03-03T20:28:10.025Z,66.86
2019-03-03T20:30:42.249Z,67.02
2019-03-03T20:33:13.575Z,67.04
2019-03-03T20:35:44.955Z,67.19
2019-03-03T20:38:16.867Z,67.38
2019-03-03T20:40:48.131Z,67.62
2019-03-03T20:43:19.437Z,67.81
2019-03-03T20:45:50.467Z,67.62
2019-03-03T20:48:21.286Z,67.34
2019-03-03T20:50:52.121Z,67.09
2019-03-03T20:53:23.042Z,67.30
2019-03-03T20:55:54.615Z,67.11
2019-03-03T20:58:25.850Z,66.89
2019-03-03T21:00:56.887Z,66.79
2019-03-03T21:03:28.122Z,66.53
2019-03-03T21:05:59.141Z,66.62
2019-03-03T21:08:29.900Z,66.36
2019-03-03T21:11:00.876Z,66.87
2019-03-03T21:13:31.867Z,66.90
2019-03-03T21:16:02.638Z,67.28
2019-03-03T21:18:33.616Z,67.17
2019-03-03T21:21:04.453Z,66.98
2019-03-03T21:23:35.210Z,67.22
2019-03-03T21:26:06.072Z,67.26
2019-03-03T21:28:37.131Z,66.94
2019-03-03T21:31:08.186Z,67.13
2019-03-03T21:33:39.156Z,67.65
2019-03-03T21:36:10.065Z,67.85
2019-03-03T21:38:41.339Z,67.91
2019-03-03T21:41:12.826Z,67.55
2019-03-03T21:43:43.846Z,67.82
2019-03-03T21:46:14.876Z,67.57
2019-03-03T21:48:45.950Z,67.46
2019-03-03T21:51:17.098Z,67.56
2019-03-03T21:53:48.099Z,67.70
2019-03-03T21:56:19.519Z,67.63
2019-03-03T21:58:50.771Z,67.58
2019-03-03T22:01:21.786Z,67.81
2019-03-03T22:03:52.862Z,68.06
2019-03-03T22:06:23.850Z,68.32
2019-03-03T22:08:54.834Z,68.08
2019-03-03T22:11:26.197Z,68.26
2019-03-03T22:13:57.206Z,68.26
2019-03-03T22:16:27.969Z,68.52
2019-03-03T22:18:59.189Z,69.15
2019-03-03T22:21:30.429Z,69.15
2019-03-03T22:24:01.413Z,69.23
2019-03-03T22:26:32.719Z,69.11
2019-03-03T22:29:03.489Z,69.66
2019-03-03T22:31:34.500Z,69.57
2019-03-03T22:34:05.339Z,69.80
2019-03-03T22:36:36.347Z,70.31
2019-03-03T22:39:08.065Z,70.45
2019-03-03T22:41:39.903Z,70.45
2019-03-03T22:44:10.723Z,70.51
2019-03-03T22:46:41.747Z,70.49
2019-03-03T22:49:12.513Z,70.14
2019-03-03T22:51:43.287Z,70.16
2019-03-03T22:54:14.151Z,70.31
2019-03-03T22:56:44.991Z,69.92
2019-03-03T22:59:16.032Z,70.41
2019-03-03T23:01:46.889Z,69.67
2019-03-03T23:04:48.605Z,69.45
2019-03-03T23:07:26.910Z,69.21
2019-03-03T23:10:37.340Z,69.49
2019-03-03T23:13:38.105Z,69.20
2019-03-03T23:16:45.621Z,68.28
2019-03-03T23:19:44.820Z,67.88
2019-03-03T23:22:36.977Z,67.90
2019-03-03T23:25:39.012Z,67.50
2019-03-03T23:28:09.793Z,67.41
2019-03-03T23:30:40.937Z,66.71
2019-03-03T23:33:11.697Z,66.58
2019-03-03T23:35:42.793Z,67.07
2019-03-03T23:38:14.125Z,67.03
2019-03-03T23:40:46.173Z,66.46
2019-03-03T23:43:17.243Z,66.39
2019-03-03T23:45:48.079Z,66.24
2019-03-03T23:48:19.130Z,65.95
2019-03-03T23:50:50.132Z,65.72
2019-03-03T23:53:20.961Z,65.38
2019-03-03T23:55:52.102Z,65.05
2019-03-03T23:58:23.469Z,64.67
